createdAt,value
2018-12-23T00:02:28.718Z,100144.84
2018-12-23T00:04:58.204Z,100146.45
2018-12-23T00:07:27.687Z,100147.03
2018-12-23T00:09:57.210Z,100149.06
2018-12-23T00:12:26.702Z,100150.39
2018-12-23T00:14:56.230Z,100144.84
2018-12-23T00:17:25.698Z,100146.40
2018-12-23T00:19:55.179Z,100149.20
2018-12-23T00:22:24.646Z,100146.90
2018-12-23T00:24:54.146Z,100145.70
2018-12-23T00:27:23.622Z,100145.16
2018-12-23T00:29:53.110Z,100147.95
2018-12-23T00:32:22.581Z,100155.84
2018-12-23T00:34:52.493Z,100158.77
2018-12-23T00:37:21.965Z,100159.33
2018-12-23T00:39:51.458Z,100158.14
2018-12-23T00:42:20.939Z,100162.48
2018-12-23T00:44:50.421Z,100167.67
2018-12-23T00:47:19.914Z,100167.67
2018-12-23T00:49:49.402Z,100165.42
2018-12-23T00:52:18.889Z,100169.27
2018-12-23T00:54:48.382Z,100164.65
2018-12-23T00:57:19.245Z,100165.75
2018-12-23T00:59:48.984Z,100169.63
2018-12-23T01:02:18.622Z,100167.44
2018-12-23T01:04:48.110Z,100171.07
2018-12-23T01:07:17.597Z,100171.61
2018-12-23T01:09:47.093Z,100173.91
2018-12-23T01:12:16.562Z,100176.70
2018-12-23T01:14:46.067Z,100176.43
2018-12-23T01:17:15.533Z,100181.25
2018-12-23T01:19:45.038Z,100188.26
2018-12-23T01:22:14.513Z,100193.61
2018-12-23T01:24:43.993Z,100193.98
2018-12-23T01:27:13.590Z,100200.49
2018-12-23T01:29:43.085Z,100203.42
2018-12-23T01:32:12.552Z,100205.84
2018-12-23T01:34:42.470Z,100202.42
2018-12-23T01:37:12.040Z,100201.23
2018-12-23T01:39:41.530Z,100210.40
2018-12-23T01:42:11.510Z,100203.65
2018-12-23T01:44:41.015Z,100215.48
2018-12-23T01:47:10.495Z,100210.49
2018-12-23T01:49:40.001Z,100206.30
2018-12-23T01:52:09.475Z,100205.34
2018-12-23T01:54:38.969Z,100209.70
2018-12-23T01:57:08.438Z,100207.73
2018-12-23T01:59:37.942Z,100204.42
2018-12-23T02:02:07.445Z,100206.58
2018-12-23T02:04:36.957Z,100204.42
2018-12-23T02:07:06.637Z,100207.55
2018-12-23T02:09:36.152Z,100199.57
2018-12-23T02:12:05.641Z,100208.28
2018-12-23T02:14:35.138Z,100207.95
2018-12-23T02:17:04.630Z,100212.83
2018-12-23T02:19:34.142Z,100216.81
2018-12-23T02:22:03.631Z,100212.83
2018-12-23T02:24:33.138Z,100214.16
2018-12-23T02:27:02.598Z,100213.19
2018-12-23T02:29:32.235Z,100208.11
2018-12-23T02:32:01.702Z,100205.81
2018-12-23T02:34:31.190Z,100199.66
2018-12-23T02:37:00.671Z,100206.77
2018-12-23T02:39:30.189Z,100210.40
2018-12-23T02:41:59.659Z,100208.59
2018-12-23T02:44:29.153Z,100207.51
2018-12-23T02:46:58.614Z,100203.88
2018-12-23T02:49:28.114Z,100202.32
2018-12-23T02:51:57.586Z,100203.88
2018-12-23T02:54:27.095Z,100194.62
2018-12-23T02:56:56.562Z,100192.45
2018-12-23T02:59:26.040Z,100195.68
2018-12-23T03:01:55.524Z,100201.45
2018-12-23T03:04:25.007Z,100209.94
2018-12-23T03:06:54.791Z,100206.30
2018-12-23T03:09:24.292Z,100211.86
2018-12-23T03:11:53.762Z,100210.30
2018-12-23T03:14:23.254Z,100205.17
2018-12-23T03:16:52.732Z,100212.45
2018-12-23T03:19:22.534Z,100208.11
2018-12-23T03:21:52.123Z,100207.88
2018-12-23T03:24:21.613Z,100207.97
2018-12-23T03:26:51.083Z,100204.75
2018-12-23T03:29:20.735Z,100215.38
2018-12-23T03:31:50.225Z,100211.03
2018-12-23T03:34:19.727Z,100209.70
2018-12-23T03:36:49.482Z,100213.92
2018-12-23T03:39:18.974Z,100212.45
2018-12-23T03:41:48.449Z,100214.05
2018-12-23T03:44:17.944Z,100206.91
2018-12-23T03:46:47.415Z,100210.30
2018-12-23T03:49:16.907Z,100202.09
2018-12-23T03:51:46.586Z,100210.44
2018-12-23T03:54:16.082Z,100213.72
2018-12-23T03:56:45.566Z,100213.95
2018-12-23T03:59:15.078Z,100210.60
2018-12-23T04:01:44.581Z,100212.99
2018-12-23T04:04:14.119Z,100211.06
2018-12-23T04:06:43.574Z,100213.09
2018-12-23T04:09:13.071Z,100217.25
2018-12-23T04:11:42.544Z,100213.36
2018-12-23T04:14:12.049Z,100225.32
2018-12-23T04:16:41.517Z,100226.55
2018-12-23T04:19:11.001Z,100224.95
2018-12-23T04:21:40.482Z,100229.17
2018-12-23T04:24:09.984Z,100233.76
2018-12-23T04:26:39.990Z,100222.89
2018-12-23T04:29:09.493Z,100224.36
2018-12-23T04:31:38.967Z,100218.18
2018-12-23T04:34:08.462Z,100210.47
2018-12-23T04:36:37.926Z,100214.13
2018-12-23T04:39:07.425Z,100210.27
2018-12-23T04:41:36.985Z,100209.91
2018-12-23T04:44:06.566Z,100212.80
2018-12-23T04:46:36.043Z,100210.84
2018-12-23T04:49:05.562Z,100209.28
2018-12-23T04:51:35.022Z,100216.25
2018-12-23T04:54:04.539Z,100209.27
2018-12-23T04:56:34.014Z,100205.52
2018-12-23T04:59:03.633Z,100212.06
2018-12-23T05:01:33.102Z,100214.36
2018-12-23T05:04:02.606Z,100202.03
2018-12-23T05:06:32.074Z,100207.48
2018-12-23T05:09:01.570Z,100219.31
2018-12-23T05:11:31.036Z,100211.10
2018-12-23T05:14:00.552Z,100221.00
2018-12-23T05:16:30.026Z,100218.58
2018-12-23T05:18:59.539Z,100217.61
2018-12-23T05:21:29.033Z,100219.08
2018-12-23T05:23:58.526Z,100215.36
2018-12-23T05:26:27.987Z,100209.14
2018-12-23T05:28:57.495Z,100215.69
2018-12-23T05:31:26.977Z,100209.77
2018-12-23T05:33:56.501Z,100211.53
2018-12-23T05:36:25.972Z,100215.79
2018-12-23T05:38:55.471Z,100214.92
2018-12-23T05:41:25.350Z,100214.59
2018-12-23T05:43:54.918Z,100210.61
2018-12-23T05:46:24.521Z,100206.25
2018-12-23T05:48:53.982Z,100206.62
2018-12-23T05:51:23.487Z,100216.81
2018-12-23T05:53:52.950Z,100220.10
2018-12-23T05:56:22.630Z,100219.05
2018-12-23T05:58:52.094Z,100211.90
2018-12-23T06:01:21.618Z,100221.90
2018-12-23T06:03:51.101Z,100221.30
2018-12-23T06:06:20.607Z,100231.33
2018-12-23T06:08:50.109Z,100232.16
2018-12-23T06:11:19.701Z,100236.87
2018-12-23T06:13:49.162Z,100241.56
2018-12-23T06:16:18.758Z,100240.60
2018-12-23T06:18:48.225Z,100239.54
2018-12-23T06:21:17.719Z,100238.55
2018-12-23T06:23:47.190Z,100237.52
2018-12-23T06:26:16.681Z,100235.82
2018-12-23T06:28:46.155Z,100236.88
2018-12-23T06:31:15.653Z,100234.52
2018-12-23T06:33:45.137Z,100247.78
2018-12-23T06:36:14.666Z,100246.82
2018-12-23T06:38:44.142Z,100240.41
2018-12-23T06:41:13.745Z,100245.48
2018-12-23T06:43:43.226Z,100245.02
2018-12-23T06:46:12.734Z,100236.72
2018-12-23T06:48:42.206Z,100237.91
2018-12-23T06:51:11.698Z,100245.66
2018-12-23T06:53:41.174Z,100242.73
2018-12-23T06:56:10.653Z,100236.45
2018-12-23T06:58:40.124Z,100237.65
2018-12-23T07:01:09.630Z,100232.73
2018-12-23T07:03:39.103Z,100242.03
2018-12-23T07:06:08.584Z,100241.33
2018-12-23T07:08:38.046Z,100236.95
2018-12-23T07:11:07.528Z,100244.45
2018-12-23T07:13:37.006Z,100243.20
2018-12-23T07:16:06.519Z,100249.25
2018-12-23T07:18:35.982Z,100242.97
2018-12-23T07:21:05.481Z,100250.11
2018-12-23T07:23:34.942Z,100243.06
2018-12-23T07:26:04.437Z,100248.61
2018-12-23T07:28:33.911Z,100245.48
2018-12-23T07:31:03.418Z,100245.26
2018-12-23T07:33:32.902Z,100240.44
2018-12-23T07:36:02.486Z,100241.04
2018-12-23T07:38:32.061Z,100245.16
2018-12-23T07:41:01.567Z,100238.98
2018-12-23T07:43:31.040Z,100241.73
2018-12-23T07:46:00.526Z,100235.59
2018-12-23T07:48:29.986Z,100237.02
2018-12-23T07:50:59.502Z,100243.66
2018-12-23T07:53:28.974Z,100246.32
2018-12-23T07:55:59.472Z,100245.59
2018-12-23T07:58:29.120Z,100248.21
2018-12-23T08:00:58.610Z,100250.37
2018-12-23T08:03:28.066Z,100250.73
2018-12-23T08:05:57.579Z,100254.32
2018-12-23T08:08:27.254Z,100249.96
2018-12-23T08:10:57.061Z,100248.27
2018-12-23T08:13:26.541Z,100241.75
2018-12-23T08:15:56.008Z,100248.64
2018-12-23T08:18:25.529Z,100243.95
2018-12-23T08:20:55.002Z,100245.52
2018-12-23T08:23:24.480Z,100237.17
2018-12-23T08:25:53.994Z,100243.91
2018-12-23T08:28:23.466Z,100236.99
2018-12-23T08:30:52.937Z,100241.58
2018-12-23T08:33:22.461Z,100237.95
2018-12-23T08:35:51.931Z,100236.13
2018-12-23T08:38:21.402Z,100238.18
2018-12-23T08:40:50.918Z,100231.27
2018-12-23T08:43:20.427Z,100228.23
2018-12-23T08:45:49.905Z,100228.28
2018-12-23T08:48:19.426Z,100219.15
2018-12-23T08:50:48.917Z,100219.15
2018-12-23T08:53:18.637Z,100224.80
2018-12-23T08:55:48.162Z,100222.87
2018-12-23T08:58:17.657Z,100224.88
2018-12-23T09:00:47.153Z,100226.53
2018-12-23T09:03:19.049Z,100225.25
2018-12-23T09:05:48.194Z,100224.88
2018-12-23T09:08:18.997Z,100223.19
2018-12-23T09:10:48.480Z,100214.71
2018-12-23T09:13:18.303Z,100215.62
2018-12-23T09:15:47.774Z,100214.84
2018-12-23T09:18:19.386Z,100216.95
2018-12-23T09:20:48.806Z,100215.39
2018-12-23T09:23:18.288Z,100211.16
2018-12-23T09:25:47.769Z,100200.02
2018-12-23T09:28:17.283Z,100198.78
2018-12-23T09:30:48.205Z,100194.20
2018-12-23T09:33:20.419Z,100199.52
2018-12-23T09:35:51.990Z,100197.31
2018-12-23T09:38:21.542Z,100195.10
2018-12-23T09:40:51.102Z,100200.04
2018-12-23T09:43:20.590Z,100201.96
2018-12-23T09:45:50.118Z,100196.83
2018-12-23T09:48:19.578Z,100197.19
2018-12-23T09:50:49.058Z,100209.14
2018-12-23T09:53:18.582Z,100205.98
2018-12-23T09:55:48.050Z,100198.05
2018-12-23T09:58:17.971Z,100201.48
2018-12-23T10:00:47.531Z,100201.48
2018-12-23T10:03:17.014Z,100190.09
2018-12-23T10:05:46.498Z,100192.09
2018-12-23T10:08:16.021Z,100191.84
2018-12-23T10:10:45.499Z,100192.14
2018-12-23T10:13:14.979Z,100178.42
2018-12-23T10:15:44.498Z,100178.31
2018-12-23T10:18:13.957Z,100177.81
2018-12-23T10:20:43.430Z,100169.83
2018-12-23T10:23:12.950Z,100166.95
2018-12-23T10:25:42.428Z,100166.36
2018-12-23T10:28:11.893Z,100167.78
2018-12-23T10:30:41.414Z,100160.02
2018-12-23T10:33:10.887Z,100156.75
2018-12-23T10:35:40.474Z,100153.95
2018-12-23T10:38:18.205Z,100154.97
2018-12-23T10:40:41.537Z,100150.11
2018-12-23T10:43:11.042Z,100157.20
2018-12-23T10:45:40.525Z,100150.30
2018-12-23T10:48:10.011Z,100154.45
2018-12-23T10:50:39.547Z,100148.45
2018-12-23T10:53:09.025Z,100147.51
2018-12-23T10:55:38.502Z,100145.56
2018-12-23T10:58:08.040Z,100140.31
2018-12-23T11:00:37.550Z,100124.20
2018-12-23T11:03:07.040Z,100122.86
2018-12-23T11:05:36.567Z,100130.24
2018-12-23T11:08:06.058Z,100120.12
2018-12-23T11:10:35.625Z,100110.73
2018-12-23T11:13:05.438Z,100101.20
2018-12-23T11:15:34.924Z,100105.41
2018-12-23T11:18:04.501Z,100101.13
2018-12-23T11:20:34.025Z,100101.34
2018-12-23T11:23:03.507Z,100090.91
2018-12-23T11:25:33.009Z,100088.50
2018-12-23T11:28:02.537Z,100093.97
2018-12-23T11:30:32.005Z,100099.87
2018-12-23T11:33:01.483Z,100091.23
2018-12-23T11:35:31.002Z,100083.53
2018-12-23T11:38:00.490Z,100084.36
2018-12-23T11:40:29.974Z,100081.92
2018-12-23T11:42:59.609Z,100079.33
2018-12-23T11:45:29.110Z,100089.84
2018-12-23T11:47:58.593Z,100076.52
2018-12-23T11:50:28.114Z,100068.53
2018-12-23T11:52:57.594Z,100070.27
2018-12-23T11:55:27.102Z,100071.13
2018-12-23T11:57:56.588Z,100067.67
2018-12-23T12:00:26.137Z,100060.12
2018-12-23T12:02:55.611Z,100047.70
2018-12-23T12:05:25.118Z,100049.47
2018-12-23T12:07:54.598Z,100050.47
2018-12-23T12:10:24.176Z,100057.88
2018-12-23T12:12:53.712Z,100051.23
2018-12-23T12:15:23.211Z,100053.56
2018-12-23T12:17:52.685Z,100052.23
2018-12-23T12:20:22.206Z,100043.81
2018-12-23T12:22:51.682Z,100043.24
2018-12-23T12:25:21.191Z,100034.14
2018-12-23T12:27:50.666Z,100029.17
2018-12-23T12:30:20.154Z,100025.94
2018-12-23T12:32:49.661Z,100019.22
2018-12-23T12:35:19.150Z,100020.28
2018-12-23T12:37:48.631Z,100019.64
2018-12-23T12:40:18.149Z,100017.69
2018-12-23T12:42:47.626Z,100015.51
2018-12-23T12:45:17.110Z,100013.67
2018-12-23T12:47:46.643Z,100005.91
2018-12-23T12:50:16.126Z,100009.75
2018-12-23T12:52:45.606Z,100015.79
2018-12-23T12:55:15.118Z,100009.54
2018-12-23T12:57:44.626Z,100006.47
2018-12-23T13:00:14.127Z,100007.38
2018-12-23T13:02:43.644Z,99997.09
2018-12-23T13:05:13.122Z,99993.23
2018-12-23T13:07:42.601Z,100000.43
2018-12-23T13:10:12.153Z,99999.61
2018-12-23T13:12:41.706Z,99995.48
2018-12-23T13:15:11.198Z,100000.16
2018-12-23T13:17:40.716Z,100001.84
2018-12-23T13:20:10.210Z,99997.84
2018-12-23T13:22:39.670Z,99996.30
2018-12-23T13:25:09.198Z,99994.41
2018-12-23T13:27:38.670Z,100004.80
2018-12-23T13:30:08.246Z,100003.46
2018-12-23T13:32:37.773Z,100006.66
2018-12-23T13:35:07.297Z,100001.77
2018-12-23T13:37:36.769Z,99996.09
2018-12-23T13:40:18.255Z,99994.84
2018-12-23T13:43:12.462Z,99989.01
2018-12-23T13:45:50.630Z,99989.16
2018-12-23T13:50:38.026Z,99988.08
2018-12-23T13:53:22.278Z,99969.86
2018-12-23T13:58:06.573Z,99974.48
2018-12-23T14:00:50.146Z,99964.46
2018-12-23T14:03:59.952Z,99961.55
2018-12-23T14:07:47.153Z,99951.91
2018-12-23T14:10:27.745Z,99957.16
2018-12-23T14:12:57.254Z,99965.36
2018-12-23T14:15:26.714Z,99955.30
2018-12-23T14:17:56.198Z,99952.48
2018-12-23T14:20:25.729Z,99954.28
2018-12-23T14:22:55.211Z,99953.02
2018-12-23T14:25:24.674Z,99949.53
2018-12-23T14:27:54.191Z,99949.53
2018-12-23T14:30:23.654Z,99951.91
2018-12-23T14:32:53.258Z,99948.67
2018-12-23T14:35:22.766Z,99954.81
2018-12-23T14:37:52.231Z,99941.59
2018-12-23T14:40:21.705Z,99940.25
2018-12-23T14:42:51.218Z,99932.34
2018-12-23T14:45:20.991Z,99929.77
2018-12-23T14:47:50.465Z,99921.96
2018-12-23T14:50:19.974Z,99910.28
2018-12-23T14:52:49.443Z,99911.91
2018-12-23T14:55:18.922Z,99909.53
2018-12-23T14:57:48.498Z,99906.58
2018-12-23T15:00:17.985Z,99902.73
2018-12-23T15:02:47.462Z,99904.89
2018-12-23T15:05:16.983Z,99898.10
2018-12-23T15:07:46.446Z,99901.80
2018-12-23T15:10:15.935Z,99901.80
2018-12-23T15:12:45.430Z,99895.45
2018-12-23T15:15:14.908Z,99892.47
2018-12-23T15:17:44.374Z,99889.02
2018-12-23T15:20:13.889Z,99893.08
2018-12-23T15:22:43.351Z,99886.72
2018-12-23T15:25:12.865Z,99885.61
2018-12-23T15:27:42.365Z,99881.62
2018-12-23T15:30:11.851Z,99882.98
2018-12-23T15:32:41.338Z,99879.78
2018-12-23T15:35:10.898Z,99874.39
2018-12-23T15:37:40.446Z,99870.87
2018-12-23T15:40:09.914Z,99874.47
2018-12-23T15:42:39.417Z,99876.16
2018-12-23T15:45:08.896Z,99880.97
2018-12-23T15:47:38.772Z,99874.18
2018-12-23T15:50:08.294Z,99878.24
2018-12-23T15:52:37.765Z,99874.69
2018-12-23T15:55:07.238Z,99870.48
2018-12-23T15:57:36.752Z,99863.41
2018-12-23T16:00:06.434Z,99862.66
2018-12-23T16:02:35.894Z,99860.31
2018-12-23T16:05:05.501Z,99856.00
2018-12-23T16:07:34.969Z,99845.41
2018-12-23T16:10:05.055Z,99850.58
2018-12-23T16:12:34.526Z,99845.55
2018-12-23T16:15:04.172Z,99849.90
2018-12-23T16:17:33.695Z,99850.05
2018-12-23T16:20:03.291Z,99846.63
2018-12-23T16:22:32.766Z,99835.03
2018-12-23T16:25:02.298Z,99830.11
2018-12-23T16:27:31.761Z,99828.42
2018-12-23T16:30:01.241Z,99820.95
2018-12-23T16:32:30.766Z,99821.56
2018-12-23T16:35:00.238Z,99822.89
2018-12-23T16:37:29.706Z,99816.61
2018-12-23T16:39:59.711Z,99814.30
2018-12-23T16:42:31.006Z,99802.48
2018-12-23T16:45:00.550Z,99801.77
2018-12-23T16:47:30.318Z,99790.78
2018-12-23T16:49:59.782Z,99786.54
2018-12-23T16:52:29.310Z,99789.45
2018-12-23T16:54:58.790Z,99794.66
2018-12-23T16:57:28.254Z,99779.11
2018-12-23T16:59:57.902Z,99780.59
2018-12-23T17:02:27.410Z,99786.26
2018-12-23T17:04:56.882Z,99768.77
2018-12-23T17:07:26.416Z,99770.50
2018-12-23T17:09:55.886Z,99786.95
2018-12-23T17:12:25.365Z,99782.38
2018-12-23T17:14:55.671Z,99776.71
2018-12-23T17:17:25.153Z,99767.09
2018-12-23T17:19:54.622Z,99767.48
2018-12-23T17:22:24.257Z,99767.41
2018-12-23T17:24:53.746Z,99762.02
2018-12-23T17:27:23.220Z,99759.01
2018-12-23T17:29:52.812Z,99767.13
2018-12-23T17:32:22.565Z,99773.48
2018-12-23T17:34:52.082Z,99769.99
2018-12-23T17:37:21.669Z,99770.61
2018-12-23T17:39:51.139Z,99763.75
2018-12-23T17:42:27.085Z,99759.77
2018-12-23T17:44:56.550Z,99747.95
2018-12-23T17:47:26.016Z,99742.78
2018-12-23T17:49:55.545Z,99738.30
2018-12-23T17:52:25.062Z,99734.67
2018-12-23T17:54:54.534Z,99730.33
2018-12-23T17:57:24.058Z,99727.20
2018-12-23T17:59:53.542Z,99726.09
2018-12-23T18:02:23.008Z,99728.86
2018-12-23T18:04:54.059Z,99731.66
2018-12-23T18:07:23.526Z,99731.45
2018-12-23T18:09:54.238Z,99732.77
2018-12-23T18:12:23.729Z,99736.75
2018-12-23T18:14:53.228Z,99732.09
2018-12-23T18:17:22.825Z,99721.46
2018-12-23T18:19:52.290Z,99721.46
2018-12-23T18:22:21.759Z,99716.41
2018-12-23T18:24:51.265Z,99717.27
2018-12-23T18:27:20.734Z,99720.75
2018-12-23T18:29:50.202Z,99725.66
2018-12-23T18:32:19.703Z,99722.29
2018-12-23T18:34:49.181Z,99726.92
2018-12-23T18:37:18.653Z,99725.02
2018-12-23T18:39:48.162Z,99731.88
2018-12-23T18:42:17.641Z,99739.98
2018-12-23T18:44:47.370Z,99730.69
2018-12-23T18:47:17.279Z,99726.70
2018-12-23T18:49:46.780Z,99718.73
2018-12-23T18:52:16.336Z,99719.56
2018-12-23T18:54:46.409Z,99715.58
2018-12-23T18:57:17.549Z,99715.36
2018-12-23T18:59:48.344Z,99713.68
2018-12-23T19:02:25.664Z,99712.70
2018-12-23T19:04:55.161Z,99711.81
2018-12-23T19:07:24.647Z,99706.61
2018-12-23T19:10:16.145Z,99717.59
2018-12-23T19:13:15.682Z,99715.50
2018-12-23T19:16:10.103Z,99710.38
2018-12-23T19:21:58.378Z,99711.37
2018-12-23T19:24:41.565Z,99705.70
2018-12-23T19:28:24.250Z,99701.15
2018-12-23T19:32:02.743Z,99686.83
2018-12-23T19:34:59.682Z,99680.41
2018-12-23T19:37:49.354Z,99686.33
2018-12-23T19:41:47.950Z,99679.02
2018-12-23T19:45:33.046Z,99669.83
2018-12-23T19:50:20.653Z,99679.48
2018-12-23T19:53:04.702Z,99684.86
2018-12-23T19:59:57.707Z,99700.46
2018-12-23T20:04:47.658Z,99704.62
2018-12-23T20:08:09.378Z,99706.70
2018-12-23T20:11:30.314Z,99692.02
2018-12-23T20:14:17.700Z,99692.52
2018-12-23T20:17:00.018Z,99690.15
2018-12-23T20:19:40.595Z,99686.17
2018-12-23T20:22:25.079Z,99682.19
2018-12-23T20:25:06.071Z,99685.17
2018-12-23T20:28:45.270Z,99684.84
2018-12-23T20:32:03.067Z,99687.50
2018-12-23T20:34:51.218Z,99688.33
2018-12-23T20:38:33.607Z,99694.31
2018-12-23T20:41:21.983Z,99694.81
2018-12-23T20:44:06.141Z,99698.58
2018-12-23T20:46:51.970Z,99696.06
2018-12-23T20:50:30.226Z,99701.88
2018-12-23T20:53:59.612Z,99706.96
2018-12-23T20:57:49.907Z,99702.73
2018-12-23T21:01:01.445Z,99701.16
2018-12-23T21:03:50.574Z,99701.41
2018-12-23T21:07:10.535Z,99701.88
2018-12-23T21:09:54.777Z,99691.90
2018-12-23T21:12:42.694Z,99700.22
2018-12-23T21:16:27.145Z,99707.59
2018-12-23T21:19:14.078Z,99704.80
2018-12-23T21:22:54.567Z,99706.57
2018-12-23T21:25:36.755Z,99714.67
2018-12-23T21:29:35.588Z,99711.02
2018-12-23T21:32:44.328Z,99718.80
2018-12-23T21:35:52.817Z,99713.95
2018-12-23T21:39:01.254Z,99708.78
2018-12-23T21:42:09.743Z,99702.52
2018-12-23T21:45:18.174Z,99708.70
2018-12-23T21:48:27.094Z,99718.59
2018-12-23T21:51:35.417Z,99732.36
2018-12-23T21:54:43.920Z,99726.11
2018-12-23T21:57:52.352Z,99720.48
2018-12-23T22:01:02.376Z,99717.11
2018-12-23T22:04:12.521Z,99714.31
2018-12-23T22:07:21.038Z,99719.48
2018-12-23T22:10:17.729Z,99718.37
2018-12-23T22:13:26.252Z,99713.84
2018-12-23T22:15:57.057Z,99709.37
2018-12-23T22:18:29.314Z,99702.59
2018-12-23T22:21:00.219Z,99706.58
2018-12-23T22:23:30.787Z,99710.92
2018-12-23T22:26:03.583Z,99708.87
2018-12-23T22:28:34.032Z,99716.97
2018-12-23T22:31:04.592Z,99718.52
2018-12-23T22:33:35.117Z,99718.37
2018-12-23T22:36:05.581Z,99716.22
2018-12-23T22:38:36.471Z,99720.81
2018-12-23T22:44:44.807Z,99728.55
2018-12-23T22:47:35.701Z,99738.24
2018-12-23T22:50:06.374Z,99746.88
2018-12-23T22:52:36.855Z,99751.45
2018-12-23T22:55:07.319Z,99754.69
2018-12-23T22:57:38.585Z,99758.00
2018-12-23T23:00:11.576Z,99766.70
2018-12-23T23:02:42.097Z,99757.92
2018-12-23T23:05:12.597Z,99770.13
2018-12-23T23:07:43.063Z,99768.91
2018-12-23T23:10:13.533Z,99769.12
2018-12-23T23:12:44.063Z,99761.45
2018-12-23T23:15:15.287Z,99759.63
2018-12-23T23:17:45.747Z,99774.52
2018-12-23T23:20:16.973Z,99771.55
2018-12-23T23:22:47.630Z,99776.12
2018-12-23T23:25:19.179Z,99772.41
2018-12-23T23:27:49.689Z,99777.00
2018-12-23T23:30:20.161Z,99765.78
2018-12-23T23:32:52.361Z,99774.70
2018-12-23T23:35:42.368Z,99773.73
2018-12-23T23:38:32.478Z,99773.42
2018-12-23T23:41:04.816Z,99780.93
2018-12-23T23:43:36.682Z,99778.59
2018-12-23T23:46:07.531Z,99775.67
2018-12-23T23:48:38.144Z,99777.96
2018-12-23T23:51:10.367Z,99779.97
2018-12-23T23:53:40.856Z,99776.12
2018-12-23T23:56:11.367Z,99776.44
2018-12-23T23:58:42.210Z,99773.06
